<?xml version="1.0" encoding="UTF-8" ?>
<gpx version="1.1" xmlns:xsi="http://www.w3.org/2001/XMLSchema-instance" 
    xmlns="http://www.topografix.com/GPX/1/1" 
    xsi:schemaLocation="http://www.topografix.com/GPX/1/1 http://www.topografix.com/GPX/1/1/gpx.xsd" 
    creator="Openrunner - https://www.openrunner.com" >	<trk>
						<name>10067047-Salita dei Campioni - Chiappucci</name>
						<trkseg>
					<trkpt lat="44.705540" lon="8.226020">
						<ele>176</ele>
						<time>2020-02-12T11:55:21Z</time>
					</trkpt>
					<trkpt lat="44.705470" lon="8.225930">
						<ele>176</ele>
						<time>2020-02-12T11:55:23Z</time>
					</trkpt>
					<trkpt lat="44.704820" lon="8.226730">
						<ele>182</ele>
						<time>2020-02-12T11:55:38Z</time>
					</trkpt>
					<trkpt lat="44.704570" lon="8.226950">
						<ele>185</ele>
						<time>2020-02-12T11:55:43Z</time>
					</trkpt>
					<trkpt lat="44.704390" lon="8.227020">
						<ele>187</ele>
						<time>2020-02-12T11:55:47Z</time>
					</trkpt>
					<trkpt lat="44.704030" lon="8.227120">
						<ele>192</ele>
						<time>2020-02-12T11:55:53Z</time>
					</trkpt>
					<trkpt lat="44.703040" lon="8.227430">
						<ele>203</ele>
						<time>2020-02-12T11:56:11Z</time>
					</trkpt>
					<trkpt lat="44.702880" lon="8.227550">
						<ele>205</ele>
						<time>2020-02-12T11:56:14Z</time>
					</trkpt>
					<trkpt lat="44.702810" lon="8.227690">
						<ele>206</ele>
						<time>2020-02-12T11:56:17Z</time>
					</trkpt>
					<trkpt lat="44.702810" lon="8.227790">
						<ele>207</ele>
						<time>2020-02-12T11:56:18Z</time>
					</trkpt>
					<trkpt lat="44.702820" lon="8.227860">
						<ele>207</ele>
						<time>2020-02-12T11:56:19Z</time>
					</trkpt>
					<trkpt lat="44.702870" lon="8.227920">
						<ele>207</ele>
						<time>2020-02-12T11:56:20Z</time>
					</trkpt>
					<trkpt lat="44.702920" lon="8.227940">
						<ele>207</ele>
						<time>2020-02-12T11:56:21Z</time>
					</trkpt>
					<trkpt lat="44.703010" lon="8.227930">
						<ele>206</ele>
						<time>2020-02-12T11:56:22Z</time>
					</trkpt>
					<trkpt lat="44.703370" lon="8.227810">
						<ele>203</ele>
						<time>2020-02-12T11:56:29Z</time>
					</trkpt>
					<trkpt lat="44.704050" lon="8.227810">
						<ele>196</ele>
						<time>2020-02-12T11:56:41Z</time>
					</trkpt>
					<trkpt lat="44.704170" lon="8.227860">
						<ele>196</ele>
						<time>2020-02-12T11:56:43Z</time>
					</trkpt>
					<trkpt lat="44.704260" lon="8.227940">
						<ele>197</ele>
						<time>2020-02-12T11:56:45Z</time>
					</trkpt>
					<trkpt lat="44.704410" lon="8.228150">
						<ele>200</ele>
						<time>2020-02-12T11:56:49Z</time>
					</trkpt>
					<trkpt lat="44.704820" lon="8.228580">
						<ele>203</ele>
						<time>2020-02-12T11:56:58Z</time>
					</trkpt>
					<trkpt lat="44.704920" lon="8.228710">
						<ele>204</ele>
						<time>2020-02-12T11:57:01Z</time>
					</trkpt>
					<trkpt lat="44.705020" lon="8.228910">
						<ele>206</ele>
						<time>2020-02-12T11:57:04Z</time>
					</trkpt>
					<trkpt lat="44.705200" lon="8.229500">
						<ele>207</ele>
						<time>2020-02-12T11:57:12Z</time>
					</trkpt>
					<trkpt lat="44.705190" lon="8.229600">
						<ele>208</ele>
						<time>2020-02-12T11:57:13Z</time>
					</trkpt>
					<trkpt lat="44.705160" lon="8.229660">
						<ele>210</ele>
						<time>2020-02-12T11:57:14Z</time>
					</trkpt>
					<trkpt lat="44.705110" lon="8.229670">
						<ele>212</ele>
						<time>2020-02-12T11:57:15Z</time>
					</trkpt>
					<trkpt lat="44.705070" lon="8.229640">
						<ele>213</ele>
						<time>2020-02-12T11:57:16Z</time>
					</trkpt>
					<trkpt lat="44.705030" lon="8.229380">
						<ele>212</ele>
						<time>2020-02-12T11:57:19Z</time>
					</trkpt>
					<trkpt lat="44.704980" lon="8.229230">
						<ele>212</ele>
						<time>2020-02-12T11:57:21Z</time>
					</trkpt>
					<trkpt lat="44.704940" lon="8.229170">
						<ele>212</ele>
						<time>2020-02-12T11:57:22Z</time>
					</trkpt>
					<trkpt lat="44.704870" lon="8.229110">
						<ele>212</ele>
						<time>2020-02-12T11:57:24Z</time>
					</trkpt>
					<trkpt lat="44.704500" lon="8.228960">
						<ele>214</ele>
						<time>2020-02-12T11:57:30Z</time>
					</trkpt>
					<trkpt lat="44.704370" lon="8.228860">
						<ele>214</ele>
						<time>2020-02-12T11:57:33Z</time>
					</trkpt>
					<trkpt lat="44.704200" lon="8.228620">
						<ele>211</ele>
						<time>2020-02-12T11:57:37Z</time>
					</trkpt>
					<trkpt lat="44.704140" lon="8.228600">
						<ele>212</ele>
						<time>2020-02-12T11:57:38Z</time>
					</trkpt>
					<trkpt lat="44.704100" lon="8.228620">
						<ele>212</ele>
						<time>2020-02-12T11:57:39Z</time>
					</trkpt>
					<trkpt lat="44.704070" lon="8.228680">
						<ele>214</ele>
						<time>2020-02-12T11:57:40Z</time>
					</trkpt>
					<trkpt lat="44.704070" lon="8.228780">
						<ele>216</ele>
						<time>2020-02-12T11:57:41Z</time>
					</trkpt>
					<trkpt lat="44.704110" lon="8.228870">
						<ele>217</ele>
						<time>2020-02-12T11:57:43Z</time>
					</trkpt>
					<trkpt lat="44.704260" lon="8.229020">
						<ele>219</ele>
						<time>2020-02-12T11:57:46Z</time>
					</trkpt>
					<trkpt lat="44.704330" lon="8.229160">
						<ele>221</ele>
						<time>2020-02-12T11:57:48Z</time>
					</trkpt>
					<trkpt lat="44.704640" lon="8.230750">
						<ele>229</ele>
						<time>2020-02-12T11:58:09Z</time>
					</trkpt>
					<trkpt lat="44.704710" lon="8.230900">
						<ele>229</ele>
						<time>2020-02-12T11:58:11Z</time>
					</trkpt>
					<trkpt lat="44.704900" lon="8.231070">
						<ele>227</ele>
						<time>2020-02-12T11:58:15Z</time>
					</trkpt>
					<trkpt lat="44.705040" lon="8.231250">
						<ele>225</ele>
						<time>2020-02-12T11:58:19Z</time>
					</trkpt>
					<trkpt lat="44.705070" lon="8.231350">
						<ele>224</ele>
						<time>2020-02-12T11:58:20Z</time>
					</trkpt>
					<trkpt lat="44.705070" lon="8.231440">
						<ele>224</ele>
						<time>2020-02-12T11:58:21Z</time>
					</trkpt>
					<trkpt lat="44.705030" lon="8.231490">
						<ele>225</ele>
						<time>2020-02-12T11:58:22Z</time>
					</trkpt>
					<trkpt lat="44.704960" lon="8.231490">
						<ele>227</ele>
						<time>2020-02-12T11:58:23Z</time>
					</trkpt>
					<trkpt lat="44.704810" lon="8.231310">
						<ele>229</ele>
						<time>2020-02-12T11:58:27Z</time>
					</trkpt>
					<trkpt lat="44.704720" lon="8.231230">
						<ele>230</ele>
						<time>2020-02-12T11:58:29Z</time>
					</trkpt>
					<trkpt lat="44.704190" lon="8.230990">
						<ele>236</ele>
						<time>2020-02-12T11:58:39Z</time>
					</trkpt>
					<trkpt lat="44.703590" lon="8.230670">
						<ele>244</ele>
						<time>2020-02-12T11:58:50Z</time>
					</trkpt>
					<trkpt lat="44.703080" lon="8.230510">
						<ele>247</ele>
						<time>2020-02-12T11:58:59Z</time>
					</trkpt>
					<trkpt lat="44.702590" lon="8.230240">
						<ele>246</ele>
						<time>2020-02-12T11:59:09Z</time>
					</trkpt>
					<trkpt lat="44.702470" lon="8.230210">
						<ele>246</ele>
						<time>2020-02-12T11:59:11Z</time>
					</trkpt>
					<trkpt lat="44.702370" lon="8.230240">
						<ele>246</ele>
						<time>2020-02-12T11:59:13Z</time>
					</trkpt>
					<trkpt lat="44.702250" lon="8.230310">
						<ele>246</ele>
						<time>2020-02-12T11:59:15Z</time>
					</trkpt>
					<trkpt lat="44.702140" lon="8.230440">
						<ele>248</ele>
						<time>2020-02-12T11:59:18Z</time>
					</trkpt>
					<trkpt lat="44.701880" lon="8.231230">
						<ele>262</ele>
						<time>2020-02-12T11:59:29Z</time>
					</trkpt>
					<trkpt lat="44.701830" lon="8.231330">
						<ele>263</ele>
						<time>2020-02-12T11:59:30Z</time>
					</trkpt>
					<trkpt lat="44.701740" lon="8.231400">
						<ele>263</ele>
						<time>2020-02-12T11:59:32Z</time>
					</trkpt>
					<trkpt lat="44.701610" lon="8.231420">
						<ele>263</ele>
						<time>2020-02-12T11:59:34Z</time>
					</trkpt>
					<trkpt lat="44.701440" lon="8.231400">
						<ele>262</ele>
						<time>2020-02-12T11:59:37Z</time>
					</trkpt>
					<trkpt lat="44.701190" lon="8.231280">
						<ele>259</ele>
						<time>2020-02-12T11:59:42Z</time>
					</trkpt>
					<trkpt lat="44.701060" lon="8.231260">
						<ele>259</ele>
						<time>2020-02-12T11:59:44Z</time>
					</trkpt>
					<trkpt lat="44.700910" lon="8.231280">
						<ele>258</ele>
						<time>2020-02-12T11:59:47Z</time>
					</trkpt>
					<trkpt lat="44.700800" lon="8.231350">
						<ele>260</ele>
						<time>2020-02-12T11:59:49Z</time>
					</trkpt>
					<trkpt lat="44.700740" lon="8.231460">
						<ele>262</ele>
						<time>2020-02-12T11:59:51Z</time>
					</trkpt>
					<trkpt lat="44.700730" lon="8.231610">
						<ele>265</ele>
						<time>2020-02-12T11:59:53Z</time>
					</trkpt>
					<trkpt lat="44.700750" lon="8.231740">
						<ele>268</ele>
						<time>2020-02-12T11:59:55Z</time>
					</trkpt>
					<trkpt lat="44.700850" lon="8.231860">
						<ele>271</ele>
						<time>2020-02-12T11:59:57Z</time>
					</trkpt>
					<trkpt lat="44.701520" lon="8.232320">
						<ele>279</ele>
						<time>2020-02-12T12:00:10Z</time>
					</trkpt>
					<trkpt lat="44.701590" lon="8.232350">
						<ele>279</ele>
						<time>2020-02-12T12:00:12Z</time>
					</trkpt>
					<trkpt lat="44.702090" lon="8.232280">
						<ele>281</ele>
						<time>2020-02-12T12:00:20Z</time>
					</trkpt>
					<trkpt lat="44.702230" lon="8.232170">
						<ele>280</ele>
						<time>2020-02-12T12:00:23Z</time>
					</trkpt>
					<trkpt lat="44.702560" lon="8.231680">
						<ele>274</ele>
						<time>2020-02-12T12:00:32Z</time>
					</trkpt>
					<trkpt lat="44.702650" lon="8.231620">
						<ele>272</ele>
						<time>2020-02-12T12:00:34Z</time>
					</trkpt>
					<trkpt lat="44.702720" lon="8.231610">
						<ele>272</ele>
						<time>2020-02-12T12:00:35Z</time>
					</trkpt>
					<trkpt lat="44.702820" lon="8.231670">
						<ele>272</ele>
						<time>2020-02-12T12:00:37Z</time>
					</trkpt>
					<trkpt lat="44.702880" lon="8.231790">
						<ele>273</ele>
						<time>2020-02-12T12:00:39Z</time>
					</trkpt>
					<trkpt lat="44.702900" lon="8.231900">
						<ele>273</ele>
						<time>2020-02-12T12:00:40Z</time>
					</trkpt>
					<trkpt lat="44.702880" lon="8.232040">
						<ele>274</ele>
						<time>2020-02-12T12:00:42Z</time>
					</trkpt>
					<trkpt lat="44.702750" lon="8.232350">
						<ele>279</ele>
						<time>2020-02-12T12:00:46Z</time>
					</trkpt>
					<trkpt lat="44.702530" lon="8.232770">
						<ele>285</ele>
						<time>2020-02-12T12:00:53Z</time>
					</trkpt>
					<trkpt lat="44.702400" lon="8.232880">
						<ele>286</ele>
						<time>2020-02-12T12:00:56Z</time>
					</trkpt>
					<trkpt lat="44.702310" lon="8.232890">
						<ele>286</ele>
						<time>2020-02-12T12:00:57Z</time>
					</trkpt>
					<trkpt lat="44.702160" lon="8.232860">
						<ele>287</ele>
						<time>2020-02-12T12:01:00Z</time>
					</trkpt>
					<trkpt lat="44.701940" lon="8.232940">
						<ele>289</ele>
						<time>2020-02-12T12:01:04Z</time>
					</trkpt>
					<trkpt lat="44.701410" lon="8.232980">
						<ele>294</ele>
						<time>2020-02-12T12:01:14Z</time>
					</trkpt>
					<trkpt lat="44.701250" lon="8.232950">
						<ele>295</ele>
						<time>2020-02-12T12:01:16Z</time>
					</trkpt>
					<trkpt lat="44.701200" lon="8.232970">
						<ele>296</ele>
						<time>2020-02-12T12:01:17Z</time>
					</trkpt>
					<trkpt lat="44.701170" lon="8.233010">
						<ele>297</ele>
						<time>2020-02-12T12:01:18Z</time>
					</trkpt>
					<trkpt lat="44.701170" lon="8.233070">
						<ele>299</ele>
						<time>2020-02-12T12:01:19Z</time>
					</trkpt>
					<trkpt lat="44.701200" lon="8.233120">
						<ele>300</ele>
						<time>2020-02-12T12:01:20Z</time>
					</trkpt>
					<trkpt lat="44.701270" lon="8.233160">
						<ele>300</ele>
						<time>2020-02-12T12:01:21Z</time>
					</trkpt>
					<trkpt lat="44.701600" lon="8.233230">
						<ele>298</ele>
						<time>2020-02-12T12:01:27Z</time>
					</trkpt>
					<trkpt lat="44.701680" lon="8.233270">
						<ele>297</ele>
						<time>2020-02-12T12:01:28Z</time>
					</trkpt>
					<trkpt lat="44.701730" lon="8.233370">
						<ele>298</ele>
						<time>2020-02-12T12:01:30Z</time>
					</trkpt>
					<trkpt lat="44.701740" lon="8.233480">
						<ele>298</ele>
						<time>2020-02-12T12:01:31Z</time>
					</trkpt>
					<trkpt lat="44.701720" lon="8.233610">
						<ele>298</ele>
						<time>2020-02-12T12:01:33Z</time>
					</trkpt>
					<trkpt lat="44.701630" lon="8.233780">
						<ele>300</ele>
						<time>2020-02-12T12:01:36Z</time>
					</trkpt>
					<trkpt lat="44.701510" lon="8.233900">
						<ele>302</ele>
						<time>2020-02-12T12:01:38Z</time>
					</trkpt>
					<trkpt lat="44.701380" lon="8.233970">
						<ele>304</ele>
						<time>2020-02-12T12:01:41Z</time>
					</trkpt>
					<trkpt lat="44.701130" lon="8.234040">
						<ele>309</ele>
						<time>2020-02-12T12:01:45Z</time>
					</trkpt>
					<trkpt lat="44.700780" lon="8.234170">
						<ele>316</ele>
						<time>2020-02-12T12:01:52Z</time>
					</trkpt>
					<trkpt lat="44.700600" lon="8.234300">
						<ele>319</ele>
						<time>2020-02-12T12:01:55Z</time>
					</trkpt>
					<trkpt lat="44.700070" lon="8.234940">
						<ele>327</ele>
						<time>2020-02-12T12:02:08Z</time>
					</trkpt>
					<trkpt lat="44.699560" lon="8.235450">
						<ele>336</ele>
						<time>2020-02-12T12:02:19Z</time>
					</trkpt>
					<trkpt lat="44.699480" lon="8.235560">
						<ele>337</ele>
						<time>2020-02-12T12:02:21Z</time>
					</trkpt>
					<trkpt lat="44.699410" lon="8.235690">
						<ele>338</ele>
						<time>2020-02-12T12:02:23Z</time>
					</trkpt>
					<trkpt lat="44.699360" lon="8.235890">
						<ele>339</ele>
						<time>2020-02-12T12:02:26Z</time>
					</trkpt>
					<trkpt lat="44.699270" lon="8.235930">
						<ele>341</ele>
						<time>2020-02-12T12:02:27Z</time>
					</trkpt>
					<trkpt lat="44.699220" lon="8.235880">
						<ele>340</ele>
						<time>2020-02-12T12:02:29Z</time>
					</trkpt>
					<trkpt lat="44.699200" lon="8.235820">
						<ele>340</ele>
						<time>2020-02-12T12:02:29Z</time>
					</trkpt>
					<trkpt lat="44.699220" lon="8.235740">
						<ele>340</ele>
						<time>2020-02-12T12:02:30Z</time>
					</trkpt>
					<trkpt lat="44.699370" lon="8.235550">
						<ele>339</ele>
						<time>2020-02-12T12:02:34Z</time>
					</trkpt>
					<trkpt lat="44.699800" lon="8.234580">
						<ele>332</ele>
						<time>2020-02-12T12:02:48Z</time>
					</trkpt>
					<trkpt lat="44.699820" lon="8.234420">
						<ele>332</ele>
						<time>2020-02-12T12:02:51Z</time>
					</trkpt>
					<trkpt lat="44.699870" lon="8.234330">
						<ele>331</ele>
						<time>2020-02-12T12:02:52Z</time>
					</trkpt>
					<trkpt lat="44.699920" lon="8.234090">
						<ele>330</ele>
						<time>2020-02-12T12:02:55Z</time>
					</trkpt>
					<trkpt lat="44.699900" lon="8.234000">
						<ele>328</ele>
						<time>2020-02-12T12:02:56Z</time>
					</trkpt>
					<trkpt lat="44.699800" lon="8.233840">
						<ele>324</ele>
						<time>2020-02-12T12:02:59Z</time>
					</trkpt>
					<trkpt lat="44.699710" lon="8.233840">
						<ele>324</ele>
						<time>2020-02-12T12:03:01Z</time>
					</trkpt>
					<trkpt lat="44.699100" lon="8.234050">
						<ele>330</ele>
						<time>2020-02-12T12:03:12Z</time>
					</trkpt>
					<trkpt lat="44.698660" lon="8.234140">
						<ele>329</ele>
						<time>2020-02-12T12:03:20Z</time>
					</trkpt>
					<trkpt lat="44.698380" lon="8.234150">
						<ele>328</ele>
						<time>2020-02-12T12:03:25Z</time>
					</trkpt>
					<trkpt lat="44.697970" lon="8.234460">
						<ele>330</ele>
						<time>2020-02-12T12:03:33Z</time>
					</trkpt>
					<trkpt lat="44.697840" lon="8.234700">
						<ele>336</ele>
						<time>2020-02-12T12:03:37Z</time>
					</trkpt>
					<trkpt lat="44.697690" lon="8.234890">
						<ele>340</ele>
						<time>2020-02-12T12:03:40Z</time>
					</trkpt>
					<trkpt lat="44.697530" lon="8.234920">
						<ele>339</ele>
						<time>2020-02-12T12:03:43Z</time>
					</trkpt>
					<trkpt lat="44.697210" lon="8.234820">
						<ele>332</ele>
						<time>2020-02-12T12:03:49Z</time>
					</trkpt>
					<trkpt lat="44.696940" lon="8.234940">
						<ele>336</ele>
						<time>2020-02-12T12:03:54Z</time>
					</trkpt>
					<trkpt lat="44.696460" lon="8.235010">
						<ele>332</ele>
						<time>2020-02-12T12:04:03Z</time>
					</trkpt>
					<trkpt lat="44.696360" lon="8.235140">
						<ele>332</ele>
						<time>2020-02-12T12:04:05Z</time>
					</trkpt>
					<trkpt lat="44.696170" lon="8.235440">
						<ele>334</ele>
						<time>2020-02-12T12:04:10Z</time>
					</trkpt>
					<trkpt lat="44.696160" lon="8.235680">
						<ele>339</ele>
						<time>2020-02-12T12:04:13Z</time>
					</trkpt>
					<trkpt lat="44.696210" lon="8.235920">
						<ele>346</ele>
						<time>2020-02-12T12:04:16Z</time>
					</trkpt>
					<trkpt lat="44.696230" lon="8.236160">
						<ele>352</ele>
						<time>2020-02-12T12:04:19Z</time>
					</trkpt>
					<trkpt lat="44.696170" lon="8.236300">
						<ele>353</ele>
						<time>2020-02-12T12:04:22Z</time>
					</trkpt>
					<trkpt lat="44.695820" lon="8.236490">
						<ele>346</ele>
						<time>2020-02-12T12:04:28Z</time>
					</trkpt>
					<trkpt lat="44.695610" lon="8.236750">
						<ele>353</ele>
						<time>2020-02-12T12:04:33Z</time>
					</trkpt>
					<trkpt lat="44.695440" lon="8.236880">
						<ele>357</ele>
						<time>2020-02-12T12:04:37Z</time>
					</trkpt>
					<trkpt lat="44.695270" lon="8.236950">
						<ele>360</ele>
						<time>2020-02-12T12:04:40Z</time>
					</trkpt>
					<trkpt lat="44.695120" lon="8.236860">
						<ele>359</ele>
						<time>2020-02-12T12:04:43Z</time>
					</trkpt>
					<trkpt lat="44.694990" lon="8.236280">
						<ele>346</ele>
						<time>2020-02-12T12:04:50Z</time>
					</trkpt>
					<trkpt lat="44.694800" lon="8.236080">
						<ele>344</ele>
						<time>2020-02-12T12:04:55Z</time>
					</trkpt>
					<trkpt lat="44.694570" lon="8.236030">
						<ele>346</ele>
						<time>2020-02-12T12:04:59Z</time>
					</trkpt>
					<trkpt lat="44.694240" lon="8.235900">
						<ele>348</ele>
						<time>2020-02-12T12:05:05Z</time>
					</trkpt>
					<trkpt lat="44.694040" lon="8.235670">
						<ele>342</ele>
						<time>2020-02-12T12:05:09Z</time>
					</trkpt>
					<trkpt lat="44.693880" lon="8.235640">
						<ele>342</ele>
						<time>2020-02-12T12:05:12Z</time>
					</trkpt>
					<trkpt lat="44.693640" lon="8.235740">
						<ele>346</ele>
						<time>2020-02-12T12:05:17Z</time>
					</trkpt>
					<trkpt lat="44.693500" lon="8.235840">
						<ele>350</ele>
						<time>2020-02-12T12:05:20Z</time>
					</trkpt>
					<trkpt lat="44.693440" lon="8.235930">
						<ele>352</ele>
						<time>2020-02-12T12:05:21Z</time>
					</trkpt>
					<trkpt lat="44.693470" lon="8.236060">
						<ele>356</ele>
						<time>2020-02-12T12:05:23Z</time>
					</trkpt>
					<trkpt lat="44.693240" lon="8.236350">
						<ele>365</ele>
						<time>2020-02-12T12:05:28Z</time>
					</trkpt>
					<trkpt lat="44.693020" lon="8.236460">
						<ele>368</ele>
						<time>2020-02-12T12:05:32Z</time>
					</trkpt>
					<trkpt lat="44.692520" lon="8.236430">
						<ele>367</ele>
						<time>2020-02-12T12:05:41Z</time>
					</trkpt>
					<trkpt lat="44.692370" lon="8.236380">
						<ele>366</ele>
						<time>2020-02-12T12:05:44Z</time>
					</trkpt>
					<trkpt lat="44.692170" lon="8.236290">
						<ele>365</ele>
						<time>2020-02-12T12:05:48Z</time>
					</trkpt>
					<trkpt lat="44.692050" lon="8.236130">
						<ele>361</ele>
						<time>2020-02-12T12:05:51Z</time>
					</trkpt>
					<trkpt lat="44.691970" lon="8.235950">
						<ele>356</ele>
						<time>2020-02-12T12:05:54Z</time>
					</trkpt>
					<trkpt lat="44.691920" lon="8.235920">
						<ele>356</ele>
						<time>2020-02-12T12:05:54Z</time>
					</trkpt>
					<trkpt lat="44.691860" lon="8.235920">
						<ele>356</ele>
						<time>2020-02-12T12:05:56Z</time>
					</trkpt>
					<trkpt lat="44.691770" lon="8.236230">
						<ele>365</ele>
						<time>2020-02-12T12:06:00Z</time>
					</trkpt>
					<trkpt lat="44.691600" lon="8.236420">
						<ele>371</ele>
						<time>2020-02-12T12:06:04Z</time>
					</trkpt>
					<trkpt lat="44.691390" lon="8.236530">
						<ele>375</ele>
						<time>2020-02-12T12:06:08Z</time>
					</trkpt>
					<trkpt lat="44.691300" lon="8.236660">
						<ele>379</ele>
						<time>2020-02-12T12:06:10Z</time>
					</trkpt>
					<trkpt lat="44.691330" lon="8.236720">
						<ele>380</ele>
						<time>2020-02-12T12:06:11Z</time>
					</trkpt>
					<trkpt lat="44.691420" lon="8.236730">
						<ele>380</ele>
						<time>2020-02-12T12:06:12Z</time>
					</trkpt>
					<trkpt lat="44.691790" lon="8.237010">
						<ele>387</ele>
						<time>2020-02-12T12:06:20Z</time>
					</trkpt>
					<trkpt lat="44.691960" lon="8.237090">
						<ele>389</ele>
						<time>2020-02-12T12:06:23Z</time>
					</trkpt>
					<trkpt lat="44.692500" lon="8.237120">
						<ele>388</ele>
						<time>2020-02-12T12:06:33Z</time>
					</trkpt>
					<trkpt lat="44.692720" lon="8.237210">
						<ele>391</ele>
						<time>2020-02-12T12:06:37Z</time>
					</trkpt>
					<trkpt lat="44.692930" lon="8.237240">
						<ele>393</ele>
						<time>2020-02-12T12:06:41Z</time>
					</trkpt>
					<trkpt lat="44.693070" lon="8.237290">
						<ele>396</ele>
						<time>2020-02-12T12:06:43Z</time>
					</trkpt>
					<trkpt lat="44.693140" lon="8.237280">
						<ele>396</ele>
						<time>2020-02-12T12:06:44Z</time>
					</trkpt>
					<trkpt lat="44.693300" lon="8.237210">
						<ele>394</ele>
						<time>2020-02-12T12:06:47Z</time>
					</trkpt>
					<trkpt lat="44.693400" lon="8.237180">
						<ele>392</ele>
						<time>2020-02-12T12:06:49Z</time>
					</trkpt>
					<trkpt lat="44.693540" lon="8.237190">
						<ele>391</ele>
						<time>2020-02-12T12:06:52Z</time>
					</trkpt>
					<trkpt lat="44.693630" lon="8.237230">
						<ele>391</ele>
						<time>2020-02-12T12:06:53Z</time>
					</trkpt>
					<trkpt lat="44.693840" lon="8.237480">
						<ele>396</ele>
						<time>2020-02-12T12:06:58Z</time>
					</trkpt>
					<trkpt lat="44.694010" lon="8.237790">
						<ele>401</ele>
						<time>2020-02-12T12:07:03Z</time>
					</trkpt>
					<trkpt lat="44.694110" lon="8.238070">
						<ele>406</ele>
						<time>2020-02-12T12:07:07Z</time>
					</trkpt>
					<trkpt lat="44.694150" lon="8.238380">
						<ele>413</ele>
						<time>2020-02-12T12:07:11Z</time>
					</trkpt>
					<trkpt lat="44.694260" lon="8.238520">
						<ele>416</ele>
						<time>2020-02-12T12:07:14Z</time>
					</trkpt>
					<trkpt lat="44.693770" lon="8.238610">
						<ele>422</ele>
						<time>2020-02-12T12:07:23Z</time>
					</trkpt>
					<trkpt lat="44.693610" lon="8.238600">
						<ele>422</ele>
						<time>2020-02-12T12:07:25Z</time>
					</trkpt>
					<trkpt lat="44.693500" lon="8.238570">
						<ele>422</ele>
						<time>2020-02-12T12:07:27Z</time>
					</trkpt>
					<trkpt lat="44.693110" lon="8.238310">
						<ele>418</ele>
						<time>2020-02-12T12:07:35Z</time>
					</trkpt>
					<trkpt lat="44.692920" lon="8.238230">
						<ele>418</ele>
						<time>2020-02-12T12:07:39Z</time>
					</trkpt>
					<trkpt lat="44.692420" lon="8.238140">
						<ele>419</ele>
						<time>2020-02-12T12:07:48Z</time>
					</trkpt>
					<trkpt lat="44.692270" lon="8.238140">
						<ele>420</ele>
						<time>2020-02-12T12:07:50Z</time>
					</trkpt>
					<trkpt lat="44.692030" lon="8.238200">
						<ele>423</ele>
						<time>2020-02-12T12:07:55Z</time>
					</trkpt>
					<trkpt lat="44.691810" lon="8.238140">
						<ele>423</ele>
						<time>2020-02-12T12:07:59Z</time>
					</trkpt>
					<trkpt lat="44.691700" lon="8.238140">
						<ele>423</ele>
						<time>2020-02-12T12:08:01Z</time>
					</trkpt>
					<trkpt lat="44.691590" lon="8.238230">
						<ele>426</ele>
						<time>2020-02-12T12:08:03Z</time>
					</trkpt>
					<trkpt lat="44.691070" lon="8.238880">
						<ele>439</ele>
						<time>2020-02-12T12:08:15Z</time>
					</trkpt>
					<trkpt lat="44.690970" lon="8.238960">
						<ele>440</ele>
						<time>2020-02-12T12:08:17Z</time>
					</trkpt>
					<trkpt lat="44.690870" lon="8.239020">
						<ele>441</ele>
						<time>2020-02-12T12:08:19Z</time>
					</trkpt>
					<trkpt lat="44.690100" lon="8.239210">
						<ele>441</ele>
						<time>2020-02-12T12:08:33Z</time>
					</trkpt>
					<trkpt lat="44.689830" lon="8.239350">
						<ele>443</ele>
						<time>2020-02-12T12:08:38Z</time>
					</trkpt>
					<trkpt lat="44.689740" lon="8.239370">
						<ele>443</ele>
						<time>2020-02-12T12:08:40Z</time>
					</trkpt>
					<trkpt lat="44.688940" lon="8.239510">
						<ele>443</ele>
						<time>2020-02-12T12:08:54Z</time>
					</trkpt>
					<trkpt lat="44.688780" lon="8.239530">
						<ele>442</ele>
						<time>2020-02-12T12:08:57Z</time>
					</trkpt>
					<trkpt lat="44.688490" lon="8.239460">
						<ele>443</ele>
						<time>2020-02-12T12:09:02Z</time>
					</trkpt>
					<trkpt lat="44.688210" lon="8.239450">
						<ele>441</ele>
						<time>2020-02-12T12:09:07Z</time>
					</trkpt>
					<trkpt lat="44.688140" lon="8.239420">
						<ele>440</ele>
						<time>2020-02-12T12:09:09Z</time>
					</trkpt>
					<trkpt lat="44.688060" lon="8.239350">
						<ele>440</ele>
						<time>2020-02-12T12:09:10Z</time>
					</trkpt>
					<trkpt lat="44.687820" lon="8.239030">
						<ele>440</ele>
						<time>2020-02-12T12:09:16Z</time>
					</trkpt>
					<trkpt lat="44.687730" lon="8.238810">
						<ele>440</ele>
						<time>2020-02-12T12:09:19Z</time>
					</trkpt>
					<trkpt lat="44.687560" lon="8.238110">
						<ele>441</ele>
						<time>2020-02-12T12:09:29Z</time>
					</trkpt>
					<trkpt lat="44.687380" lon="8.237730">
						<ele>439</ele>
						<time>2020-02-12T12:09:34Z</time>
					</trkpt>
					<trkpt lat="44.687170" lon="8.237430">
						<ele>439</ele>
						<time>2020-02-12T12:09:40Z</time>
					</trkpt>
					<trkpt lat="44.686760" lon="8.236930">
						<ele>442</ele>
						<time>2020-02-12T12:09:49Z</time>
					</trkpt>
					<trkpt lat="44.686640" lon="8.236660">
						<ele>444</ele>
						<time>2020-02-12T12:09:53Z</time>
					</trkpt>
					<trkpt lat="44.686490" lon="8.236210">
						<ele>445</ele>
						<time>2020-02-12T12:10:00Z</time>
					</trkpt>
					<trkpt lat="44.686420" lon="8.236070">
						<ele>445</ele>
						<time>2020-02-12T12:10:02Z</time>
					</trkpt>
					<trkpt lat="44.685670" lon="8.235080">
						<ele>460</ele>
						<time>2020-02-12T12:10:20Z</time>
					</trkpt>
					<trkpt lat="44.685590" lon="8.234890">
						<ele>462</ele>
						<time>2020-02-12T12:10:23Z</time>
					</trkpt>
					<trkpt lat="44.685420" lon="8.234350">
						<ele>469</ele>
						<time>2020-02-12T12:10:30Z</time>
					</trkpt>
					<trkpt lat="44.685370" lon="8.234300">
						<ele>468</ele>
						<time>2020-02-12T12:10:32Z</time>
					</trkpt>
					<trkpt lat="44.685200" lon="8.234220">
						<ele>464</ele>
						<time>2020-02-12T12:10:35Z</time>
					</trkpt>
					<trkpt lat="44.685110" lon="8.234060">
						<ele>466</ele>
						<time>2020-02-12T12:10:37Z</time>
					</trkpt>
					<trkpt lat="44.685020" lon="8.233860">
						<ele>469</ele>
						<time>2020-02-12T12:10:40Z</time>
					</trkpt>
					<trkpt lat="44.684970" lon="8.233620">
						<ele>476</ele>
						<time>2020-02-12T12:10:44Z</time>
					</trkpt>
					<trkpt lat="44.684880" lon="8.233330">
						<ele>483</ele>
						<time>2020-02-12T12:10:48Z</time>
					</trkpt>
					<trkpt lat="44.684780" lon="8.233160">
						<ele>484</ele>
						<time>2020-02-12T12:10:50Z</time>
					</trkpt>
					<trkpt lat="44.684670" lon="8.233070">
						<ele>483</ele>
						<time>2020-02-12T12:10:53Z</time>
					</trkpt>
					<trkpt lat="44.684490" lon="8.233050">
						<ele>479</ele>
						<time>2020-02-12T12:10:56Z</time>
					</trkpt>
					<trkpt lat="44.684360" lon="8.232980">
						<ele>477</ele>
						<time>2020-02-12T12:10:58Z</time>
					</trkpt>
					<trkpt lat="44.684270" lon="8.232870">
						<ele>478</ele>
						<time>2020-02-12T12:11:00Z</time>
					</trkpt>
					<trkpt lat="44.684050" lon="8.232340">
						<ele>488</ele>
						<time>2020-02-12T12:11:08Z</time>
					</trkpt>
					<trkpt lat="44.683980" lon="8.232230">
						<ele>489</ele>
						<time>2020-02-12T12:11:10Z</time>
					</trkpt>
					<trkpt lat="44.683910" lon="8.232170">
						<ele>490</ele>
						<time>2020-02-12T12:11:11Z</time>
					</trkpt>
					<trkpt lat="44.683830" lon="8.232140">
						<ele>489</ele>
						<time>2020-02-12T12:11:13Z</time>
					</trkpt>
					<trkpt lat="44.683450" lon="8.232150">
						<ele>483</ele>
						<time>2020-02-12T12:11:20Z</time>
					</trkpt>
					<trkpt lat="44.683290" lon="8.232110">
						<ele>481</ele>
						<time>2020-02-12T12:11:23Z</time>
					</trkpt>
					<trkpt lat="44.683070" lon="8.231870">
						<ele>482</ele>
						<time>2020-02-12T12:11:28Z</time>
					</trkpt>
					<trkpt lat="44.682830" lon="8.231440">
						<ele>484</ele>
						<time>2020-02-12T12:11:34Z</time>
					</trkpt>
					<trkpt lat="44.682760" lon="8.231340">
						<ele>484</ele>
						<time>2020-02-12T12:11:36Z</time>
					</trkpt>
					<trkpt lat="44.682520" lon="8.231110">
						<ele>481</ele>
						<time>2020-02-12T12:11:41Z</time>
					</trkpt>
					<trkpt lat="44.682460" lon="8.231000">
						<ele>480</ele>
						<time>2020-02-12T12:11:43Z</time>
					</trkpt>
					<trkpt lat="44.682430" lon="8.230900">
						<ele>481</ele>
						<time>2020-02-12T12:11:45Z</time>
					</trkpt>
					<trkpt lat="44.682340" lon="8.230340">
						<ele>485</ele>
						<time>2020-02-12T12:11:52Z</time>
					</trkpt>
					<trkpt lat="44.682340" lon="8.229810">
						<ele>492</ele>
						<time>2020-02-12T12:11:59Z</time>
					</trkpt>
					<trkpt lat="44.682320" lon="8.229570">
						<ele>493</ele>
						<time>2020-02-12T12:12:02Z</time>
					</trkpt>
					<trkpt lat="44.682220" lon="8.229060">
						<ele>494</ele>
						<time>2020-02-12T12:12:08Z</time>
					</trkpt>
					<trkpt lat="44.682080" lon="8.228640">
						<ele>492</ele>
						<time>2020-02-12T12:12:14Z</time>
					</trkpt>
					<trkpt lat="44.682000" lon="8.228310">
						<ele>492</ele>
						<time>2020-02-12T12:12:19Z</time>
					</trkpt>
					<trkpt lat="44.681820" lon="8.227270">
						<ele>496</ele>
						<time>2020-02-12T12:12:32Z</time>
					</trkpt>
					<trkpt lat="44.681760" lon="8.227080">
						<ele>496</ele>
						<time>2020-02-12T12:12:35Z</time>
					</trkpt>
					<trkpt lat="44.681320" lon="8.225920">
						<ele>500</ele>
						<time>2020-02-12T12:12:51Z</time>
					</trkpt>
					<trkpt lat="44.681080" lon="8.225450">
						<ele>501</ele>
						<time>2020-02-12T12:12:59Z</time>
					</trkpt>
					<trkpt lat="44.680870" lon="8.224980">
						<ele>503</ele>
						<time>2020-02-12T12:13:06Z</time>
					</trkpt>
					<trkpt lat="44.680630" lon="8.224600">
						<ele>505</ele>
						<time>2020-02-12T12:13:12Z</time>
					</trkpt>
					<trkpt lat="44.680440" lon="8.224190">
						<ele>507</ele>
						<time>2020-02-12T12:13:18Z</time>
					</trkpt>
					<trkpt lat="44.680000" lon="8.223420">
						<ele>504</ele>
						<time>2020-02-12T12:13:31Z</time>
					</trkpt>
					<trkpt lat="44.679790" lon="8.222800">
						<ele>505</ele>
						<time>2020-02-12T12:13:39Z</time>
					</trkpt>
					<trkpt lat="44.679530" lon="8.222270">
						<ele>504</ele>
						<time>2020-02-12T12:13:48Z</time>
					</trkpt>
					<trkpt lat="44.679420" lon="8.221840">
						<ele>504</ele>
						<time>2020-02-12T12:13:53Z</time>
					</trkpt>
					<trkpt lat="44.679130" lon="8.221010">
						<ele>500</ele>
						<time>2020-02-12T12:14:05Z</time>
					</trkpt>
					<trkpt lat="44.679000" lon="8.220760">
						<ele>498</ele>
						<time>2020-02-12T12:14:09Z</time>
					</trkpt>
					<trkpt lat="44.678720" lon="8.220470">
						<ele>498</ele>
						<time>2020-02-12T12:14:15Z</time>
					</trkpt>
					<trkpt lat="44.678610" lon="8.220280">
						<ele>496</ele>
						<time>2020-02-12T12:14:18Z</time>
					</trkpt>
					<trkpt lat="44.678440" lon="8.219870">
						<ele>492</ele>
						<time>2020-02-12T12:14:24Z</time>
					</trkpt>
					<trkpt lat="44.678350" lon="8.219720">
						<ele>491</ele>
						<time>2020-02-12T12:14:27Z</time>
					</trkpt>
					</trkseg>
				</trk>
			</gpx>